Time;durP1;ratioP1;P1;durP2;ratioP2;P2;SDS_P1;SDS_P2;PMS_P1;PMS_P2;Temp;Humidity;BMP_temperature;BMP_pressure;BME280_temperature;BME280_humidity;BME280_pressure;Samples;Min_cycle;Max_cycle;Signal;HPM_P1;HPM_P2
2022/09/29 00:01:49;;;;;;;22.20;17.20;;;6.20;89.60;;;;;;5020247;28;20240;-88
2022/09/29 00:04:15;;;;;;;20.80;15.47;;;6.20;89.60;;;;;;5022727;28;20275;-87
2022/09/29 00:06:40;;;;;;;19.63;15.27;;;6.20;89.50;;;;;;5017614;28;20220;-87
2022/09/29 00:09:06;;;;;;;16.90;14.33;;;6.20;89.50;;;;;;5018814;28;20181;-87
2022/09/29 00:11:31;;;;;;;17.50;14.50;;;6.20;89.40;;;;;;5020299;28;20204;-87
2022/09/29 00:13:57;;;;;;;18.37;15.07;;;6.20;89.40;;;;;;5019377;28;20177;-87
2022/09/29 00:16:23;;;;;;;19.33;15.90;;;6.20;89.40;;;;;;5015697;28;20586;-87
2022/09/29 00:18:48;;;;;;;20.17;14.73;;;6.20;89.30;;;;;;5018973;28;20184;-87
2022/09/29 00:21:18;;;;;;;18.50;15.27;;;6.20;89.30;;;;;;5021787;28;20173;-88
2022/09/29 00:23:44;;;;;;;20.07;15.70;;;6.20;89.30;;;;;;5017251;28;20177;-87
2022/09/29 00:26:12;;;;;;;24.13;16.57;;;6.20;89.30;;;;;;5018725;28;20201;-86
2022/09/29 00:28:40;;;;;;;19.50;14.97;;;6.10;89.20;;;;;;5019025;28;20177;-86
2022/09/29 00:31:08;;;;;;;17.77;15.53;;;6.10;89.30;;;;;;5019248;28;20174;-87
2022/09/29 00:33:36;;;;;;;17.90;14.73;;;6.10;89.30;;;;;;5014373;28;20644;-87
2022/09/29 00:36:08;;;;;;;24.20;14.57;;;6.10;89.40;;;;;;5014190;28;20204;-87
2022/09/29 00:38:35;;;;;;;19.33;15.10;;;6.00;89.40;;;;;;5014705;28;20212;-87
2022/09/29 00:41:01;;;;;;;15.77;14.10;;;6.00;89.40;;;;;;5014694;28;20531;-87
2022/09/29 00:43:50;;;;;;;17.23;14.00;;;6.00;89.40;;;;;;5015456;28;20321;-88
2022/09/29 00:46:19;;;;;;;17.13;13.77;;;5.90;89.30;;;;;;5012404;28;20185;-88
2022/09/29 00:48:46;;;;;;;18.33;14.43;;;5.90;89.40;;;;;;5013779;28;20165;-88
2022/09/29 00:51:12;;;;;;;18.43;15.90;;;5.90;89.50;;;;;;5012318;28;20201;-88
2022/09/29 00:53:40;;;;;;;20.80;16.93;;;5.90;89.60;;;;;;5012306;28;20169;-88
2022/09/29 00:56:10;;;;;;;22.77;17.23;;;5.90;89.70;;;;;;5012677;28;20268;-89
2022/09/29 00:58:53;;;;;;;20.00;16.63;;;5.90;89.80;;;;;;5017324;28;20666;-88
2022/09/29 01:01:21;;;;;;;22.60;17.63;;;5.90;89.80;;;;;;5016003;28;20193;-89
2022/09/29 01:03:51;;;;;;;23.23;18.03;;;5.80;89.90;;;;;;5017011;28;20181;-89
2022/09/29 01:06:23;;;;;;;21.37;17.33;;;5.90;90.10;;;;;;5016215;28;20581;-88
2022/09/29 01:09:04;;;;;;;26.23;17.23;;;5.90;90.10;;;;;;5015635;28;20165;-89
2022/09/29 01:11:30;;;;;;;27.73;20.83;;;5.90;90.20;;;;;;5015667;28;20224;-88
2022/09/29 01:14:02;;;;;;;30.97;20.80;;;6.00;90.60;;;;;;5015480;28;20177;-88
2022/09/29 01:16:29;;;;;;;30.00;20.87;;;6.10;90.90;;;;;;5015505;28;20177;-88
2022/09/29 01:18:56;;;;;;;29.57;21.23;;;6.10;91.00;;;;;;5015549;28;20201;-89
2022/09/29 01:21:46;;;;;;;26.47;20.73;;;6.10;91.00;;;;;;5015462;28;20201;-88
2022/09/29 01:24:14;;;;;;;28.33;21.80;;;6.10;91.10;;;;;;5016625;28;20275;-88
2022/09/29 01:27:08;;;;;;;28.40;20.03;;;6.10;91.20;;;;;;5015514;28;20174;-89
2022/09/29 01:29:52;;;;;;;30.23;20.53;;;6.10;91.30;;;;;;5015259;28;20185;-89
2022/09/29 01:32:35;;;;;;;27.27;20.27;;;6.10;91.30;;;;;;5016410;28;20240;-88
2022/09/29 01:35:24;;;;;;;33.30;20.03;;;6.10;91.50;;;;;;5015347;28;20677;-88
2022/09/29 01:38:16;;;;;;;24.53;18.70;;;6.10;91.50;;;;;;5015318;28;20178;-89
2022/09/29 01:40:56;;;;;;;20.37;17.27;;;6.00;91.60;;;;;;5016395;28;20253;-89
2022/09/29 01:43:36;;;;;;;21.23;16.73;;;5.90;91.50;;;;;;5014866;28;20571;-89
2022/09/29 01:46:24;;;;;;;19.37;16.60;;;5.90;91.60;;;;;;5014742;28;20200;-89
2022/09/29 01:48:53;;;;;;;19.13;14.87;;;5.90;91.70;;;;;;5014425;28;20186;-88
2022/09/29 01:51:39;;;;;;;19.07;15.70;;;5.90;91.70;;;;;;5016065;28;20216;-88
2022/09/29 01:54:11;;;;;;;20.17;15.20;;;5.90;91.70;;;;;;5015093;28;20174;-88
2022/09/29 01:56:50;;;;;;;18.33;15.40;;;5.90;91.70;;;;;;5015782;28;20177;-89
2022/09/29 01:59:22;;;;;;;21.60;16.73;;;5.90;91.70;;;;;;5014803;28;20181;-88
2022/09/29 02:01:53;;;;;;;19.20;15.73;;;5.90;91.70;;;;;;5015790;28;20193;-88
2022/09/29 02:04:28;;;;;;;21.30;15.13;;;5.90;91.70;;;;;;5015783;28;20186;-89
2022/09/29 02:07:00;;;;;;;18.60;13.27;;;5.90;91.70;;;;;;5014721;28;20169;-89
2022/09/29 02:09:33;;;;;;;15.60;11.40;;;5.80;91.50;;;;;;5013786;28;20397;-89
2022/09/29 02:12:03;;;;;;;15.93;11.13;;;5.70;91.40;;;;;;5014438;28;20193;-89
2022/09/29 02:14:35;;;;;;;13.57;9.97;;;5.50;91.30;;;;;;5015204;28;20165;-89
2022/09/29 02:17:19;;;;;;;11.60;10.30;;;5.60;91.30;;;;;;5015918;28;20162;-89
2022/09/29 02:19:47;;;;;;;10.60;9.50;;;5.60;91.30;;;;;;5014454;28;20188;-89
2022/09/29 02:22:13;;;;;;;11.43;9.43;;;5.50;91.30;;;;;;5015320;28;20193;-89
2022/09/29 02:24:39;;;;;;;9.90;8.73;;;5.40;91.20;;;;;;5014174;28;20213;-89
2022/09/29 02:27:05;;;;;;;11.73;10.27;;;5.50;91.20;;;;;;5014213;28;20271;-89
2022/09/29 02:29:33;;;;;;;12.30;10.43;;;5.40;91.10;;;;;;5014210;28;20216;-89
2022/09/29 02:32:01;;;;;;;13.50;10.10;;;5.40;91.00;;;;;;5014087;28;20197;-89
2022/09/29 02:34:30;;;;;;;12.63;9.80;;;5.30;91.00;;;;;;5014054;28;20186;-89
2022/09/29 02:37:42;;;;;;;11.53;9.97;;;5.30;91.00;;;;;;5013895;28;20682;-89
2022/09/29 02:40:28;;;;;;;13.10;10.63;;;5.30;91.00;;;;;;4990622;28;20196;-89
2022/09/29 02:43:10;;;;;;;14.10;10.50;;;5.30;90.80;;;;;;5015110;28;20212;-89
2022/09/29 02:45:48;;;;;;;12.43;10.33;;;5.30;90.90;;;;;;5013831;28;20201;-89
2022/09/29 02:48:45;;;;;;;13.67;10.57;;;5.30;90.90;;;;;;5014041;28;20176;-89
2022/09/29 02:51:16;;;;;;;10.30;9.13;;;5.30;90.80;;;;;;5013848;28;20208;-88
2022/09/29 02:54:06;;;;;;;11.73;10.47;;;5.30;90.80;;;;;;5013621;28;20180;-88
2022/09/29 02:56:37;;;;;;;12.33;10.60;;;5.30;90.70;;;;;;5013944;28;20170;-89
2022/09/29 02:59:28;;;;;;;11.93;10.60;;;5.20;90.60;;;;;;5013457;28;20177;-89
2022/09/29 03:01:55;;;;;;;10.77;9.67;;;5.10;90.60;;;;;;5007448;28;20204;-88
2022/09/29 03:04:23;;;;;;;11.40;10.13;;;5.20;90.70;;;;;;5014739;28;20279;-88
2022/09/29 03:06:49;;;;;;;10.80;9.70;;;5.10;90.50;;;;;;5013581;28;20550;-88
2022/09/29 03:09:14;;;;;;;9.83;8.73;;;5.10;90.50;;;;;;5013273;28;20185;-89
2022/09/29 03:11:40;;;;;;;10.00;8.87;;;5.10;90.50;;;;;;5013279;28;20208;-89
2022/09/29 03:14:06;;;;;;;11.40;9.70;;;5.20;90.50;;;;;;5013411;28;20207;-89
2022/09/29 03:16:32;;;;;;;13.87;9.50;;;5.20;90.50;;;;;;5013189;28;20227;-89
2022/09/29 03:18:58;;;;;;;11.23;9.53;;;5.20;90.40;;;;;;5013273;28;20184;-88
2022/09/29 03:21:23;;;;;;;20.40;13.90;;;5.20;90.40;;;;;;5014345;28;20192;-89
2022/09/29 03:23:49;;;;;;;22.73;16.60;;;5.20;90.40;;;;;;5013298;28;20177;-89
2022/09/29 03:26:14;;;;;;;23.70;19.13;;;5.40;91.00;;;;;;5013196;28;20223;-89
2022/09/29 03:28:41;;;;;;;28.17;19.67;;;5.60;91.50;;;;;;5013141;28;20200;-88
2022/09/29 03:31:08;;;;;;;34.00;20.17;;;5.80;91.90;;;;;;5013847;28;20178;-88
2022/09/29 03:33:38;;;;;;;32.00;20.87;;;5.80;92.30;;;;;;5014636;28;20179;-88
2022/09/29 03:36:05;;;;;;;29.50;22.30;;;5.80;92.50;;;;;;5013199;28;20256;-88
2022/09/29 03:38:34;;;;;;;39.30;23.30;;;5.80;92.70;;;;;;5013008;28;20187;-89
2022/09/29 03:41:00;;;;;;;29.13;22.37;;;5.90;93.00;;;;;;5012944;28;20191;-88
2022/09/29 03:43:26;;;;;;;33.90;23.37;;;5.90;93.20;;;;;;5013085;28;20181;-88
2022/09/29 03:45:53;;;;;;;34.30;24.13;;;6.00;93.50;;;;;;5012852;28;20267;-88
2022/09/29 03:48:20;;;;;;;38.77;24.93;;;6.00;93.50;;;;;;5012816;28;20231;-88
2022/09/29 03:50:46;;;;;;;39.53;26.63;;;6.00;93.70;;;;;;5012865;28;20211;-89
2022/09/29 03:53:13;;;;;;;38.93;27.23;;;6.10;93.80;;;;;;5012735;28;20747;-88
2022/09/29 03:55:39;;;;;;;35.80;25.30;;;6.10;93.80;;;;;;5012849;28;20565;-88
2022/09/29 03:58:04;;;;;;;31.33;22.70;;;6.00;93.80;;;;;;5013891;28;20169;-89
2022/09/29 04:00:30;;;;;;;30.53;21.07;;;6.00;93.90;;;;;;5013877;28;20239;-89
2022/09/29 04:02:56;;;;;;;36.07;21.00;;;5.90;93.80;;;;;;5012657;28;20373;-88
2022/09/29 04:05:22;;;;;;;29.77;21.90;;;5.90;93.90;;;;;;5012779;28;20204;-88
2022/09/29 04:07:47;;;;;;;29.70;22.63;;;5.80;93.90;;;;;;5013873;28;20180;-89
2022/09/29 04:10:13;;;;;;;32.87;23.00;;;5.90;93.90;;;;;;5012735;28;20176;-89
2022/09/29 04:12:39;;;;;;;35.73;24.63;;;5.90;93.90;;;;;;5012668;28;20193;-89
2022/09/29 04:15:05;;;;;;;35.80;24.90;;;6.00;94.00;;;;;;5012561;28;20260;-89
2022/09/29 04:17:31;;;;;;;42.80;25.23;;;6.10;94.10;;;;;;5012392;28;20187;-89
2022/09/29 04:19:56;;;;;;;44.77;26.53;;;6.10;94.10;;;;;;5012647;28;20623;-88
2022/09/29 04:22:22;;;;;;;37.07;26.57;;;6.10;94.20;;;;;;5012353;28;20207;-89
2022/09/29 04:24:47;;;;;;;44.57;27.53;;;6.20;94.30;;;;;;5012460;28;20208;-89
2022/09/29 04:27:17;;;;;;;45.27;27.57;;;6.20;94.30;;;;;;5013816;28;20180;-88
2022/09/29 04:29:43;;;;;;;45.53;28.07;;;6.20;94.40;;;;;;5012229;28;20195;-88
2022/09/29 04:32:09;;;;;;;47.10;29.07;;;6.20;94.40;;;;;;5014438;28;20205;-88
2022/09/29 04:34:34;;;;;;;44.60;27.37;;;6.20;94.50;;;;;;5016457;28;20656;-91
2022/09/29 04:37:00;;;;;;;40.43;28.00;;;6.10;94.50;;;;;;5016854;28;20177;-89
2022/09/29 04:39:26;;;;;;;45.63;29.03;;;6.10;94.50;;;;;;5016373;28;20260;-89
2022/09/29 04:41:51;;;;;;;47.87;30.20;;;6.10;94.50;;;;;;5015909;28;20558;-88
2022/09/29 04:44:21;;;;;;;47.67;29.80;;;6.20;94.60;;;;;;5016107;28;20225;-89
2022/09/29 04:46:48;;;;;;;47.97;29.97;;;6.30;94.70;;;;;;5017149;28;20196;-89
2022/09/29 04:49:13;;;;;;;46.80;30.13;;;6.30;94.80;;;;;;5015796;28;20180;-88
2022/09/29 04:51:39;;;;;;;43.97;28.43;;;6.30;94.80;;;;;;5015842;28;20258;-90
2022/09/29 04:54:05;;;;;;;47.10;29.53;;;6.40;94.90;;;;;;5016195;28;20204;-90
2022/09/29 04:56:30;;;;;;;49.90;31.20;;;6.30;94.90;;;;;;5015889;28;20176;-87
2022/09/29 04:58:57;;;;;;;45.87;29.50;;;6.30;94.80;;;;;;5017183;28;20268;-89
2022/09/29 05:01:23;;;;;;;45.03;30.30;;;6.20;94.80;;;;;;5018256;28;20248;-89
2022/09/29 05:03:48;;;;;;;41.50;28.23;;;6.20;94.90;;;;;;5018580;28;20182;-89
2022/09/29 05:06:14;;;;;;;43.90;29.43;;;6.20;94.80;;;;;;5019127;28;20577;-90
2022/09/29 05:08:40;;;;;;;46.47;28.73;;;6.10;94.80;;;;;;5017786;28;20181;-88
2022/09/29 05:11:06;;;;;;;44.47;29.13;;;6.10;94.90;;;;;;5018147;28;20173;-87
2022/09/29 05:13:32;;;;;;;50.60;29.80;;;6.10;94.90;;;;;;5021305;28;20234;-89
2022/09/29 05:15:57;;;;;;;48.70;28.60;;;6.10;94.90;;;;;;5018535;28;20249;-89
2022/09/29 05:18:24;;;;;;;43.90;29.43;;;6.10;94.90;;;;;;5018656;28;20189;-88
2022/09/29 05:20:50;;;;;;;44.67;29.33;;;6.10;94.90;;;;;;5020192;28;20181;-87
2022/09/29 05:23:15;;;;;;;49.13;30.13;;;6.20;95.00;;;;;;5020077;28;20205;-88
2022/09/29 05:25:42;;;;;;;42.30;29.60;;;6.20;95.00;;;;;;5020000;28;20204;-88
2022/09/29 05:28:09;;;;;;;45.73;29.20;;;6.20;95.10;;;;;;5018518;28;20173;-88
2022/09/29 05:30:35;;;;;;;46.13;29.17;;;6.20;95.20;;;;;;5018101;28;20203;-89
2022/09/29 05:33:01;;;;;;;47.17;29.80;;;6.30;95.20;;;;;;5019174;28;20236;-88
2022/09/29 05:35:26;;;;;;;47.80;31.17;;;6.20;95.20;;;;;;5020974;28;20181;-87
2022/09/29 05:37:52;;;;;;;42.57;29.30;;;6.30;95.20;;;;;;5020507;28;20181;-89
2022/09/29 05:40:18;;;;;;;44.83;30.13;;;6.30;95.30;;;;;;5021623;28;20276;-88
2022/09/29 05:42:44;;;;;;;44.93;29.40;;;6.30;95.30;;;;;;5019227;28;20197;-88
2022/09/29 05:45:10;;;;;;;54.43;31.47;;;6.30;95.30;;;;;;5017650;28;20604;-89
2022/09/29 05:47:39;;;;;;;50.57;32.03;;;6.40;95.40;;;;;;5017991;28;20237;-89
2022/09/29 05:50:05;;;;;;;53.20;32.63;;;6.40;95.40;;;;;;5018692;28;20177;-88
2022/09/29 05:52:31;;;;;;;47.13;32.30;;;6.40;95.40;;;;;;5017537;28;20197;-89
2022/09/29 05:54:56;;;;;;;53.73;32.73;;;6.50;95.40;;;;;;5018923;28;20604;-88
2022/09/29 05:57:22;;;;;;;49.67;32.57;;;6.50;95.40;;;;;;5017633;28;20529;-88
2022/09/29 05:59:47;;;;;;;53.00;33.63;;;6.50;95.40;;;;;;5020246;28;20231;-89
2022/09/29 06:02:13;;;;;;;50.40;31.73;;;6.50;95.40;;;;;;5017705;28;20629;-89
2022/09/29 06:04:38;;;;;;;51.53;32.93;;;6.50;95.40;;;;;;5018110;28;20252;-88
2022/09/29 06:07:04;;;;;;;50.23;32.57;;;6.60;95.40;;;;;;5018288;28;20185;-88
2022/09/29 06:09:31;;;;;;;47.77;33.00;;;6.60;95.40;;;;;;5017707;28;20170;-89
2022/09/29 06:11:57;;;;;;;51.40;34.40;;;6.60;95.40;;;;;;5017875;28;20209;-88
2022/09/29 06:14:23;;;;;;;53.73;34.03;;;6.60;95.40;;;;;;5017949;28;20177;-89
2022/09/29 06:16:49;;;;;;;56.40;34.23;;;6.60;95.40;;;;;;5017364;28;20176;-88
2022/09/29 06:19:14;;;;;;;55.27;35.20;;;6.70;95.40;;;;;;5018572;28;20170;-88
2022/09/29 06:21:40;;;;;;;53.83;33.77;;;6.70;95.40;;;;;;5017836;28;20549;-89
2022/09/29 06:24:06;;;;;;;49.60;33.60;;;6.70;95.40;;;;;;5016514;28;20179;-89
2022/09/29 06:26:32;;;;;;;50.43;33.10;;;6.70;95.40;;;;;;5018173;28;20180;-88
2022/09/29 06:28:58;;;;;;;56.87;33.40;;;6.70;95.40;;;;;;5017215;28;20188;-88
2022/09/29 06:31:25;;;;;;;48.97;33.17;;;6.80;95.40;;;;;;5016804;28;20194;-89
2022/09/29 06:33:51;;;;;;;51.63;34.07;;;6.80;95.40;;;;;;5018267;28;20166;-89
2022/09/29 06:39:05;;;;;;;49.40;32.37;;;6.90;95.50;;;;;;5017378;28;20743;-89
2022/09/29 06:41:31;;;;;;;60.83;36.87;;;6.90;95.50;;;;;;5017077;28;20253;-89
2022/09/29 06:43:56;;;;;;;50.43;34.87;;;7.00;95.50;;;;;;5017792;28;20709;-87
2022/09/29 06:46:23;;;;;;;50.23;34.43;;;7.00;95.50;;;;;;5016188;28;20173;-88
2022/09/29 06:48:48;;;;;;;52.37;34.17;;;7.10;95.50;;;;;;5017035;28;20551;-89
2022/09/29 06:51:14;;;;;;;53.43;33.10;;;7.20;95.50;;;;;;5018356;28;20169;-88
2022/09/29 06:53:39;;;;;;;49.30;33.57;;;7.20;95.50;;;;;;5018872;28;20549;-88
2022/09/29 06:56:07;;;;;;;49.23;34.23;;;7.20;95.50;;;;;;5015855;28;20587;-88
2022/09/29 06:58:34;;;;;;;54.07;34.23;;;7.30;95.50;;;;;;5015939;28;20174;-88
2022/09/29 07:01:01;;;;;;;50.03;34.13;;;7.30;95.50;;;;;;5014138;28;20212;-88
2022/09/29 07:03:27;;;;;;;54.70;35.40;;;7.30;95.50;;;;;;5014080;28;20184;-89
2022/09/29 07:05:53;;;;;;;50.27;34.23;;;7.30;95.50;;;;;;5015583;28;20201;-88
2022/09/29 07:08:18;;;;;;;50.87;34.17;;;7.40;95.50;;;;;;5014241;28;20188;-89
2022/09/29 07:10:45;;;;;;;52.40;34.97;;;7.40;95.50;;;;;;5015144;28;20177;-89
2022/09/29 07:13:11;;;;;;;52.40;35.30;;;7.50;95.50;;;;;;5014930;28;20197;-88
2022/09/29 07:15:36;;;;;;;51.73;33.53;;;7.60;95.50;;;;;;5018669;28;20224;-89
2022/09/29 07:18:03;;;;;;;52.97;35.13;;;7.50;95.50;;;;;;5016884;28;20184;-89
2022/09/29 07:20:30;;;;;;;45.53;33.27;;;7.60;95.50;;;;;;5016314;28;20189;-89
2022/09/29 07:22:56;;;;;;;50.43;34.47;;;7.70;95.50;;;;;;5016501;28;20197;-88
2022/09/29 07:25:23;;;;;;;50.13;34.37;;;7.70;95.50;;;;;;5016361;28;20577;-88
2022/09/29 07:27:50;;;;;;;50.20;34.60;;;7.80;95.50;;;;;;5016300;28;20166;-89
2022/09/29 07:30:15;;;;;;;51.20;34.63;;;7.80;95.50;;;;;;5017891;28;20272;-89
2022/09/29 07:32:41;;;;;;;50.50;33.87;;;7.80;95.50;;;;;;5015014;28;20237;-89
2022/09/29 07:35:07;;;;;;;48.67;33.70;;;7.80;95.50;;;;;;5016378;28;20185;-88
2022/09/29 07:37:32;;;;;;;52.90;33.63;;;7.80;95.40;;;;;;5016249;28;20668;-88
2022/09/29 07:39:58;;;;;;;50.77;33.67;;;7.80;95.40;;;;;;5017657;28;20173;-88
2022/09/29 07:42:26;;;;;;;47.43;33.93;;;7.90;95.40;;;;;;5017046;28;20552;-89
2022/09/29 07:44:52;;;;;;;52.07;34.40;;;7.90;95.40;;;;;;5016224;28;20201;-88
2022/09/29 07:47:18;;;;;;;49.80;35.67;;;8.00;95.40;;;;;;5017419;28;20169;-89
2022/09/29 07:49:44;;;;;;;47.60;34.03;;;8.00;95.40;;;;;;5016607;28;20261;-89
2022/09/29 07:52:11;;;;;;;51.33;35.83;;;8.00;95.40;;;;;;5016438;28;20643;-88
2022/09/29 07:54:39;;;;;;;48.90;35.60;;;8.00;95.30;;;;;;5016248;28;20209;-88
2022/09/29 07:57:04;;;;;;;48.27;34.37;;;8.00;95.30;;;;;;5015108;28;20200;-88
2022/09/29 07:59:30;;;;;;;51.93;35.67;;;8.00;95.20;;;;;;5014570;28;20647;-88
2022/09/29 08:01:56;;;;;;;47.30;35.97;;;8.10;95.30;;;;;;5014791;28;20266;-88
2022/09/29 08:04:22;;;;;;;51.27;36.50;;;8.20;95.30;;;;;;5014848;28;20704;-89
2022/09/29 08:06:47;;;;;;;51.00;34.53;;;8.20;95.20;;;;;;5016964;28;20671;-89
2022/09/29 08:09:14;;;;;;;54.93;34.50;;;8.20;95.20;;;;;;5019109;28;20184;-88
2022/09/29 08:11:41;;;;;;;52.47;37.20;;;8.30;95.20;;;;;;5019235;28;20194;-89
2022/09/29 08:14:08;;;;;;;46.87;35.63;;;8.30;95.20;;;;;;5020073;28;20181;-89
2022/09/29 08:16:35;;;;;;;47.07;36.27;;;8.40;95.20;;;;;;5018987;28;20257;-89
2022/09/29 08:19:01;;;;;;;49.40;36.60;;;8.40;95.10;;;;;;5018845;28;20196;-89
2022/09/29 08:21:28;;;;;;;48.73;35.47;;;8.50;95.10;;;;;;5018405;28;20705;-89
2022/09/29 08:23:54;;;;;;;44.80;33.37;;;8.50;95.00;;;;;;5019877;28;20173;-89
2022/09/29 08:26:21;;;;;;;47.20;34.10;;;8.50;95.00;;;;;;5017750;28;20617;-89
2022/09/29 08:28:47;;;;;;;50.80;34.43;;;8.60;95.00;;;;;;5018930;28;20181;-89
2022/09/29 08:31:19;;;;;;;48.70;34.97;;;8.60;94.90;;;;;;5017632;28;20253;-88
2022/09/29 08:33:47;;;;;;;45.90;34.70;;;8.70;94.90;;;;;;5019434;28;20154;-89
2022/09/29 08:36:13;;;;;;;40.20;32.90;;;8.70;94.80;;;;;;5019424;28;20177;-89
2022/09/29 08:38:43;;;;;;;45.30;34.53;;;8.80;94.80;;;;;;5018405;28;20239;-89
2022/09/29 08:41:38;;;;;;;49.30;34.77;;;8.80;94.80;;;;;;5018892;28;20192;-88
2022/09/29 08:44:13;;;;;;;43.83;33.30;;;8.90;94.70;;;;;;5021213;28;20232;-86
2022/09/29 08:46:47;;;;;;;45.17;32.63;;;9.00;94.60;;;;;;5017882;28;20173;-91
2022/09/29 08:49:36;;;;;;;40.03;32.23;;;9.20;94.70;;;;;;5018122;28;20166;-89
2022/09/29 08:52:08;;;;;;;37.57;30.80;;;9.20;94.50;;;;;;5018400;28;20696;-89
2022/09/29 08:54:38;;;;;;;44.60;34.37;;;9.30;94.40;;;;;;5017983;28;20276;-88
2022/09/29 08:57:05;;;;;;;42.40;33.53;;;9.40;94.50;;;;;;5016525;28;20626;-89
2022/09/29 08:59:31;;;;;;;48.67;37.17;;;9.30;94.20;;;;;;5016496;28;20648;-87
2022/09/29 09:02:02;;;;;;;42.03;32.40;;;9.50;94.20;;;;;;5017170;28;20684;-86
2022/09/29 09:04:34;;;;;;;37.50;31.50;;;9.50;94.10;;;;;;5018275;28;20189;-88
2022/09/29 09:07:11;;;;;;;39.73;31.53;;;9.70;94.10;;;;;;5017017;28;20185;-88
2022/09/29 09:09:50;;;;;;;40.07;31.27;;;9.70;93.80;;;;;;5017760;28;20303;-87
2022/09/29 09:12:23;;;;;;;40.63;30.83;;;9.70;93.80;;;;;;5018252;28;20185;-90
2022/09/29 09:14:51;;;;;;;35.47;29.87;;;9.80;93.70;;;;;;5015299;28;20169;-90
2022/09/29 09:17:52;;;;;;;42.03;32.03;;;9.80;93.50;;;;;;5015328;28;20188;-90
2022/09/29 09:20:31;;;;;;;37.90;30.73;;;9.80;93.30;;;;;;5018708;28;20188;-89
2022/09/29 09:23:09;;;;;;;30.73;27.40;;;9.80;93.20;;;;;;5018309;28;20754;-90
2022/09/29 09:25:40;;;;;;;32.30;28.93;;;9.80;92.90;;;;;;5016995;28;20295;-89
2022/09/29 09:28:13;;;;;;;34.23;27.60;;;9.90;92.90;;;;;;5016068;28;20172;-88
2022/09/29 09:30:44;;;;;;;32.63;28.23;;;9.90;92.70;;;;;;5016018;28;20246;-87
2022/09/29 09:33:21;;;;;;;31.47;27.50;;;9.90;92.70;;;;;;5018214;28;20261;-89
2022/09/29 09:35:57;;;;;;;34.00;28.53;;;10.00;92.70;;;;;;5018026;28;20180;-88
2022/09/29 09:38:32;;;;;;;40.30;30.57;;;10.10;92.70;;;;;;5015825;28;20635;-89
2022/09/29 09:40:59;;;;;;;36.33;27.80;;;10.20;92.80;;;;;;5015514;28;20173;-89
2022/09/29 09:43:44;;;;;;;36.40;28.13;;;10.10;92.60;;;;;;5015586;28;20181;-89
2022/09/29 09:46:19;;;;;;;35.17;27.53;;;10.10;92.50;;;;;;5015758;28;20741;-90
2022/09/29 09:48:59;;;;;;;35.80;25.73;;;10.20;92.40;;;;;;5016478;28;20177;-87
2022/09/29 09:52:10;;;;;;;32.33;24.37;;;10.20;92.30;;;;;;5015457;28;20193;-88
2022/09/29 09:54:40;;;;;;;20.87;18.30;;;10.20;92.30;;;;;;4985776;28;20569;-89
2022/09/29 09:57:29;;;;;;;20.03;17.93;;;10.30;92.20;;;;;;5016256;28;20165;-88
2022/09/29 10:00:03;;;;;;;17.80;15.90;;;10.20;91.60;;;;;;5016732;28;20165;-89
2022/09/29 10:02:29;;;;;;;20.90;18.00;;;10.20;91.20;;;;;;5018150;28;20220;-89
2022/09/29 10:04:55;;;;;;;19.80;17.70;;;10.30;91.40;;;;;;5017590;28;20212;-91
2022/09/29 10:07:27;;;;;;;20.07;17.97;;;10.30;91.20;;;;;;5017177;28;20178;-89
2022/09/29 10:09:54;;;;;;;21.20;16.20;;;10.20;91.10;;;;;;5017110;28;20188;-90
2022/09/29 10:12:22;;;;;;;21.50;17.87;;;10.30;91.20;;;;;;5017289;28;20295;-89
2022/09/29 10:15:02;;;;;;;17.50;15.70;;;10.30;91.10;;;;;;5016677;28;20182;-89
2022/09/29 10:17:35;;;;;;;16.73;15.03;;;10.30;90.90;;;;;;5016605;28;20169;-89
2022/09/29 10:20:04;;;;;;;16.60;14.90;;;10.40;91.10;;;;;;5015297;28;20192;-91
2022/09/29 10:22:31;;;;;;;17.40;14.37;;;10.50;91.00;;;;;;5015709;28;20205;-90
2022/09/29 10:25:18;;;;;;;14.77;13.27;;;10.50;90.90;;;;;;5016785;28;20248;-90
2022/09/29 10:27:50;;;;;;;16.97;15.17;;;10.60;90.90;;;;;;5017907;28;20663;-88
2022/09/29 10:30:31;;;;;;;16.53;14.00;;;10.50;90.70;;;;;;5015923;28;20189;-89
2022/09/29 10:32:59;;;;;;;14.97;13.53;;;10.60;90.90;;;;;;5017164;28;20193;-88
2022/09/29 10:35:42;;;;;;;13.37;11.97;;;10.60;90.80;;;;;;5015686;28;20227;-89
2022/09/29 10:38:23;;;;;;;14.03;12.60;;;10.60;90.70;;;;;;5017326;28;20179;-90
2022/09/29 10:41:03;;;;;;;12.57;11.27;;;10.70;90.60;;;;;;5017416;28;20197;-90
2022/09/29 10:43:37;;;;;;;12.73;11.53;;;10.60;90.40;;;;;;5015319;28;20169;-89
2022/09/29 10:46:05;;;;;;;12.47;11.23;;;10.70;90.50;;;;;;5014422;28;20235;-89
2022/09/29 10:48:30;;;;;;;11.90;10.80;;;10.80;90.60;;;;;;5015535;28;20232;-89
2022/09/29 10:51:02;;;;;;;13.43;12.03;;;10.90;90.60;;;;;;5014526;28;20181;-89
2022/09/29 10:53:39;;;;;;;12.13;10.87;;;10.90;90.40;;;;;;5015575;28;20173;-91
2022/09/29 10:56:08;;;;;;;11.77;10.57;;;10.70;89.80;;;;;;5014542;28;20188;-90
2022/09/29 10:58:41;;;;;;;12.47;11.20;;;10.80;90.10;;;;;;5015505;28;20217;-85
2022/09/29 11:01:13;;;;;;;12.50;11.20;;;10.80;90.20;;;;;;5014272;28;20178;-92
2022/09/29 11:03:46;;;;;;;14.40;12.00;;;10.90;90.30;;;;;;5014677;28;20197;-86
2022/09/29 11:06:13;;;;;;;12.60;11.50;;;10.90;90.20;;;;;;5015126;28;20197;-89
2022/09/29 11:08:56;;;;;;;12.87;11.50;;;10.80;90.10;;;;;;5015898;28;20169;-88
2022/09/29 11:11:25;;;;;;;13.50;12.20;;;11.00;90.40;;;;;;5014999;28;20194;-89
2022/09/29 11:13:51;;;;;;;13.43;12.13;;;11.20;90.50;;;;;;5015083;28;20584;-88
2022/09/29 11:16:26;;;;;;;12.80;11.63;;;11.20;90.30;;;;;;5014953;28;20209;-88
2022/09/29 11:18:56;;;;;;;13.47;12.17;;;11.10;90.10;;;;;;5015374;28;20177;-88
2022/09/29 11:21:41;;;;;;;14.00;12.43;;;11.00;90.00;;;;;;5014752;28;20247;-88
2022/09/29 11:24:16;;;;;;;13.77;12.33;;;11.00;89.90;;;;;;5015943;28;20231;-88
2022/09/29 11:27:06;;;;;;;14.03;12.57;;;11.10;90.00;;;;;;5014953;28;20161;-88
2022/09/29 11:29:37;;;;;;;12.90;11.63;;;11.10;89.90;;;;;;5015905;28;20219;-88
2022/09/29 11:32:38;;;;;;;15.50;12.47;;;11.20;89.90;;;;;;5015359;28;20189;-88
2022/09/29 11:35:22;;;;;;;13.50;12.13;;;11.20;90.00;;;;;;5015011;28;20177;-88
2022/09/29 11:38:15;;;;;;;12.60;10.70;;;11.30;89.80;;;;;;5016040;28;20265;-89
2022/09/29 11:40:59;;;;;;;15.97;13.30;;;11.20;89.00;;;;;;5016202;28;20178;-88
2022/09/29 11:44:00;;;;;;;15.47;13.97;;;11.20;89.60;;;;;;5014879;28;20165;-88
2022/09/29 11:46:47;;;;;;;16.73;13.70;;;11.20;89.40;;;;;;5014502;28;20197;-88
2022/09/29 11:49:54;;;;;;;15.40;13.13;;;11.30;89.60;;;;;;5014342;28;20216;-87
2022/09/29 11:52:30;;;;;;;14.67;13.27;;;11.30;89.50;;;;;;5014126;28;20235;-88
2022/09/29 11:55:17;;;;;;;14.60;13.10;;;11.40;89.80;;;;;;5014184;28;20161;-87
2022/09/29 11:57:55;;;;;;;14.20;12.70;;;11.40;89.50;;;;;;5014327;28;20578;-88
2022/09/29 12:00:31;;;;;;;13.93;12.47;;;11.50;89.70;;;;;;5013088;28;20177;-87
2022/09/29 12:03:08;;;;;;;13.30;11.90;;;11.50;89.50;;;;;;5013128;28;20300;-88
2022/09/29 12:05:58;;;;;;;12.93;11.63;;;11.50;89.40;;;;;;5013907;28;20196;-89
2022/09/29 12:09:05;;;;;;;12.43;10.70;;;11.60;89.40;;;;;;5014901;28;20647;-87
2022/09/29 12:11:34;;;;;;;10.80;9.80;;;11.80;89.30;;;;;;5012485;28;20189;-88
2022/09/29 12:14:15;;;;;;;11.20;9.07;;;11.80;88.50;;;;;;5012837;28;20168;-88
2022/09/29 12:16:51;;;;;;;13.37;9.33;;;11.80;88.20;;;;;;5013998;28;20161;-88
2022/09/29 12:19:22;;;;;;;11.20;9.20;;;11.80;87.30;;;;;;5012973;28;20169;-87
2022/09/29 12:21:50;;;;;;;9.00;8.10;;;11.80;87.50;;;;;;5012367;28;20706;-88
2022/09/29 12:24:45;;;;;;;9.27;8.37;;;11.90;87.60;;;;;;5013959;28;20244;-88
2022/09/29 12:27:17;;;;;;;8.57;7.80;;;11.90;87.20;;;;;;5013842;28;20154;-88
2022/09/29 12:30:06;;;;;;;10.03;8.53;;;11.70;86.50;;;;;;5012676;28;20195;-88
2022/09/29 12:32:38;;;;;;;11.27;8.77;;;12.00;87.20;;;;;;5011118;28;20208;-88
2022/09/29 12:35:08;;;;;;;9.97;8.70;;;12.00;87.40;;;;;;5013421;28;20161;-88
2022/09/29 12:37:55;;;;;;;8.53;7.73;;;11.90;87.00;;;;;;5013731;28;20186;-88
2022/09/29 12:40:42;;;;;;;9.63;7.97;;;11.90;86.90;;;;;;5012754;28;20176;-88
2022/09/29 12:43:34;;;;;;;9.47;8.47;;;11.80;86.40;;;;;;5015400;28;20193;-88
2022/09/29 12:46:08;;;;;;;11.50;9.83;;;11.80;87.00;;;;;;5004999;28;20217;-88
2022/09/29 12:49:07;;;;;;;10.10;9.07;;;12.00;86.70;;;;;;5012449;28;20172;-87
2022/09/29 12:51:46;;;;;;;11.57;9.90;;;12.00;86.80;;;;;;5013613;28;20185;-88
2022/09/29 12:54:22;;;;;;;11.03;10.03;;;11.90;86.50;;;;;;5015680;28;20173;-89
2022/09/29 12:56:56;;;;;;;11.90;10.10;;;11.70;86.10;;;;;;5016017;28;20605;-87
2022/09/29 12:59:28;;;;;;;11.17;10.07;;;11.70;86.70;;;;;;5016524;28;20170;-87
2022/09/29 13:01:56;;;;;;;11.87;10.63;;;11.60;86.90;;;;;;5015546;28;20197;-87